Time;durP1;ratioP1;P1;durP2;ratioP2;P2;SDS_P1;SDS_P2;PMS_P1;PMS_P2;Temp;Humidity;BMP_temperature;BMP_pressure;BME280_temperature;BME280_humidity;BME280_pressure;Samples;Min_cycle;Max_cycle;Signal;HPM_P1;HPM_P2
2022/01/05 00:00:14;;;;;;;11.73;2.30;;;;;;;3.44;100.00;100063.69;5115743;28;20035;-48
2022/01/05 00:02:40;;;;;;;8.98;1.60;;;;;;;3.40;100.00;100057.66;5115607;28;20043;-47
2022/01/05 00:05:06;;;;;;;12.55;2.45;;;;;;;3.34;100.00;100062.09;5115582;28;20036;-48
2022/01/05 00:07:32;;;;;;;7.07;2.22;;;;;;;3.19;100.00;100037.19;5097349;28;20034;-49
2022/01/05 00:09:58;;;;;;;14.23;2.17;;;;;;;3.17;100.00;100051.97;5115193;28;20036;-46
2022/01/05 00:12:24;;;;;;;13.88;2.28;;;;;;;3.24;100.00;100056.16;5115258;28;20437;-49
2022/01/05 00:14:49;;;;;;;12.88;2.38;;;;;;;3.34;100.00;100056.91;5115406;28;20047;-51
2022/01/05 00:17:14;;;;;;;9.82;2.55;;;;;;;3.37;100.00;100055.13;5115272;28;20032;-49
2022/01/05 00:19:40;;;;;;;15.10;2.35;;;;;;;3.32;100.00;100033.53;5115231;28;20157;-51
2022/01/05 00:22:06;;;;;;;12.27;2.33;;;;;;;2.87;100.00;99963.16;5115159;28;20032;-50
2022/01/05 00:24:32;;;;;;;8.88;1.98;;;;;;;3.42;100.00;100070.63;5115069;28;20038;-49
2022/01/05 00:26:57;;;;;;;10.45;2.70;;;;;;;3.31;100.00;100055.22;5115031;28;20509;-49
2022/01/05 00:29:23;;;;;;;11.32;2.65;;;;;;;3.32;100.00;100069.94;5096311;28;20044;-51
2022/01/05 00:31:49;;;;;;;8.10;2.30;;;;;;;3.04;100.00;100026.16;5115056;28;20032;-52
2022/01/05 00:34:14;;;;;;;10.20;2.40;;;;;;;3.22;100.00;100063.16;5114965;28;20042;-51
2022/01/05 00:36:39;;;;;;;13.85;2.95;;;;;;;2.85;100.00;99999.59;5114803;28;20031;-52
2022/01/05 00:39:05;;;;;;;13.80;2.90;;;;;;;3.03;100.00;100032.25;5096442;28;20122;-50
2022/01/05 00:41:30;;;;;;;11.73;2.58;;;;;;;3.17;100.00;100056.31;5096743;28;20035;-52
2022/01/05 00:43:55;;;;;;;10.55;2.83;;;;;;;2.58;100.00;99954.06;5114787;28;20039;-51
2022/01/05 00:46:21;;;;;;;10.80;2.45;;;;;;;3.17;100.00;100067.56;5114806;28;20231;-51
2022/01/05 00:48:46;;;;;;;8.95;3.17;;;;;;;2.72;100.00;99991.09;5114543;28;20034;-49
2022/01/05 00:51:12;;;;;;;8.90;2.30;;;;;;;3.08;100.00;100053.81;5114694;28;20084;-49
2022/01/05 00:53:38;;;;;;;16.58;3.05;;;;;;;2.96;100.00;100051.41;5114516;28;20035;-52
2022/01/05 00:56:04;;;;;;;13.65;2.63;;;;;;;2.93;100.00;100044.50;5114473;28;20034;-56
2022/01/05 00:58:29;;;;;;;13.48;2.67;;;;;;;2.48;100.00;99973.22;5096320;28;20024;-49
2022/01/05 01:00:56;;;;;;;12.02;2.95;;;;;;;2.50;100.00;99981.88;5096400;28;20046;-49
2022/01/05 01:03:21;;;;;;;13.20;2.35;;;;;;;2.65;100.00;100022.38;5114403;28;20060;-50
2022/01/05 01:05:47;;;;;;;16.83;3.00;;;;;;;2.36;100.00;99983.81;5114256;28;20040;-49
2022/01/05 01:08:12;;;;;;;14.68;2.65;;;;;;;2.83;100.00;100069.75;5114297;28;20036;-52
2022/01/05 01:10:38;;;;;;;14.43;2.50;;;;;;;2.82;100.00;100068.06;5114045;28;20067;-48
2022/01/05 01:13:03;;;;;;;8.93;2.40;;;;;;;2.31;100.00;99974.38;5096066;28;20035;-49
2022/01/05 01:15:28;;;;;;;9.40;2.47;;;;;;;2.72;100.00;100048.25;5114353;28;20036;-50
2022/01/05 01:17:54;;;;;;;11.70;3.05;;;;;;;2.39;100.00;99996.75;5114017;28;20024;-50
2022/01/05 01:20:20;;;;;;;15.43;2.90;;;;;;;2.36;100.00;99981.22;5095633;28;20386;-52
2022/01/05 01:22:46;;;;;;;13.60;3.10;;;;;;;2.89;100.00;100067.97;5113960;28;20031;-51
2022/01/05 01:25:11;;;;;;;9.13;2.55;;;;;;;2.60;100.00;100011.19;5113837;28;20033;-49
2022/01/05 01:27:40;;;;;;;8.15;2.42;;;;;;;2.97;100.00;100076.53;5113841;28;20024;-50
2022/01/05 01:30:06;;;;;;;9.98;2.65;;;;;;;2.70;100.00;100037.03;5113344;28;20146;-50
2022/01/05 01:32:31;;;;;;;14.57;2.83;;;;;;;2.97;100.00;100079.13;5113541;28;20034;-50
2022/01/05 01:34:57;;;;;;;10.63;2.55;;;;;;;2.93;100.00;100078.31;5113729;28;20032;-49
2022/01/05 01:37:22;;;;;;;16.13;3.47;;;;;;;2.88;100.00;100061.91;5095487;28;20036;-52
2022/01/05 01:39:47;;;;;;;14.35;3.22;;;;;;;2.44;100.00;99978.50;5113527;28;20036;-50
2022/01/05 01:42:13;;;;;;;13.85;3.05;;;;;;;2.93;100.00;100080.91;5113599;28;20040;-53
2022/01/05 01:44:38;;;;;;;15.77;3.08;;;;;;;2.95;100.00;100070.50;5095416;28;20027;-50
2022/01/05 01:47:04;;;;;;;14.10;2.40;;;;;;;3.07;100.00;100075.50;5113525;28;20035;-52
2022/01/05 01:49:29;;;;;;;14.82;2.58;;;;;;;3.10;100.00;100072.84;5113375;28;20035;-48
2022/01/05 01:51:54;;;;;;;15.65;3.08;;;;;;;2.28;100.00;99958.81;5113452;28;20027;-53
2022/01/05 01:54:20;;;;;;;15.45;3.55;;;;;;;2.59;100.00;99991.28;5113370;28;20431;-50
2022/01/05 01:56:46;;;;;;;14.73;2.75;;;;;;;2.98;100.00;100041.88;5095403;28;20027;-50
2022/01/05 01:59:12;;;;;;;11.20;2.97;;;;;;;3.15;100.00;100081.47;5094646;28;20482;-47
2022/01/05 02:01:39;;;;;;;12.55;3.20;;;;;;;2.82;100.00;100012.63;5095225;28;20036;-52
2022/01/05 02:04:04;;;;;;;22.63;3.03;;;;;;;2.96;100.00;100041.00;5113262;28;20034;-50
2022/01/05 02:06:31;;;;;;;12.45;3.78;;;;;;;2.84;100.00;100016.03;5113137;28;20107;-53
2022/01/05 02:08:58;;;;;;;19.27;3.67;;;;;;;3.33;100.00;100088.97;5095083;28;20514;-54
2022/01/05 02:11:23;;;;;;;15.38;3.03;;;;;;;2.98;100.00;100013.25;5113006;28;20501;-50
2022/01/05 02:13:48;;;;;;;12.55;3.25;;;;;;;3.45;100.00;100086.19;5113011;28;20055;-55
2022/01/05 02:16:21;;;;;;;10.18;2.92;;;;;;;3.46;100.00;100084.47;5113168;28;20039;-51
2022/01/05 02:19:05;;;;;;;14.80;3.92;;;;;;;3.08;100.00;100012.22;5094921;28;20036;-53
2022/01/05 02:21:33;;;;;;;14.77;3.55;;;;;;;3.53;100.00;100086.97;5112848;28;20035;-49
2022/01/05 02:23:59;;;;;;;16.48;3.17;;;;;;;3.17;100.00;100025.97;5113032;28;20383;-52
2022/01/05 02:26:24;;;;;;;11.93;3.15;;;;;;;3.04;100.00;99992.34;5112881;28;20436;-50
2022/01/05 02:28:50;;;;;;;17.40;3.15;;;;;;;3.14;100.00;100015.59;5112863;28;20035;-52
2022/01/05 02:31:16;;;;;;;18.00;3.50;;;;;;;3.38;100.00;100082.00;5112801;28;20082;-49
2022/01/05 02:33:42;;;;;;;12.27;3.38;;;;;;;3.16;100.00;100052.84;5094611;28;20058;-53
2022/01/05 02:36:08;;;;;;;13.38;3.20;;;;;;;3.12;100.00;100037.31;5094513;28;20153;-49
2022/01/05 02:38:34;;;;;;;12.40;2.40;;;;;;;3.36;100.00;100082.00;5112763;28;20027;-48
2022/01/05 02:41:07;;;;;;;10.52;3.05;;;;;;;3.43;100.00;100093.19;5112768;28;20133;-54
2022/01/05 02:43:32;;;;;;;10.25;3.00;;;;;;;2.91;100.00;99990.84;5112836;28;20031;-50
2022/01/05 02:45:58;;;;;;;20.95;3.40;;;;;;;3.50;100.00;100087.00;5112642;28;20490;-53
2022/01/05 02:48:23;;;;;;;13.55;2.80;;;;;;;3.45;100.00;100068.00;5112409;28;20028;-50
2022/01/05 02:50:48;;;;;;;16.90;3.20;;;;;;;3.04;100.00;99987.16;5094517;28;20043;-51
2022/01/05 02:53:14;;;;;;;16.15;3.63;;;;;;;3.38;100.00;100051.66;5112799;28;20036;-50
2022/01/05 02:55:39;;;;;;;14.82;3.22;;;;;;;3.59;100.00;100084.22;5112788;28;20019;-49
2022/01/05 02:58:04;;;;;;;12.23;3.42;;;;;;;3.35;100.00;100048.22;5094352;28;20023;-48
2022/01/05 03:00:30;;;;;;;12.50;2.80;;;;;;;3.38;100.00;100067.25;5112500;28;20078;-52
2022/01/05 03:02:55;;;;;;;12.93;3.08;;;;;;;3.08;100.00;100014.84;5112729;28;20039;-50
2022/01/05 03:05:20;;;;;;;12.55;3.38;;;;;;;3.55;100.00;100106.00;5112746;28;20036;-53
2022/01/05 03:07:46;;;;;;;14.95;3.08;;;;;;;3.55;100.00;100108.59;5112615;28;20032;-50
2022/01/05 03:10:13;;;;;;;16.75;3.08;;;;;;;3.53;100.00;100109.50;5112581;28;20039;-47
2022/01/05 03:12:40;;;;;;;15.80;3.20;;;;;;;3.15;100.00;100047.66;5115802;28;20478;-49
2022/01/05 03:15:06;;;;;;;17.30;3.35;;;;;;;3.58;100.00;100115.50;5116477;28;20535;-51
2022/01/05 03:17:32;;;;;;;19.23;3.67;;;;;;;3.54;100.00;100098.19;5116189;28;20028;-53
2022/01/05 03:19:57;;;;;;;22.02;3.92;;;;;;;3.26;100.00;100057.03;5116218;28;20036;-50
2022/01/05 03:22:22;;;;;;;18.30;3.80;;;;;;;3.23;100.00;100046.66;5116586;28;20035;-50
2022/01/05 03:24:48;;;;;;;12.48;3.40;;;;;;;3.67;100.00;100110.16;5098011;28;20073;-48
2022/01/05 03:27:13;;;;;;;17.00;3.85;;;;;;;3.66;100.00;100118.84;5116234;28;20112;-50
2022/01/05 03:29:39;;;;;;;13.23;3.22;;;;;;;3.56;100.00;100101.66;5115965;28;20059;-54
2022/01/05 03:32:04;;;;;;;16.40;3.58;;;;;;;3.60;100.00;100117.19;5115671;28;20516;-49
2022/01/05 03:34:31;;;;;;;12.32;3.45;;;;;;;3.59;100.00;100101.63;5097933;28;20442;-53
2022/01/05 03:36:57;;;;;;;21.88;4.00;;;;;;;3.72;100.00;100124.81;5116091;28;20487;-51
2022/01/05 03:39:22;;;;;;;15.63;4.22;;;;;;;3.31;100.00;100038.75;5116033;28;20054;-51
2022/01/05 03:41:47;;;;;;;20.63;5.15;;;;;;;3.81;100.00;100122.06;5097789;28;20459;-51
2022/01/05 03:44:13;;;;;;;17.77;3.22;;;;;;;3.71;100.00;100099.66;5115765;28;20027;-51
2022/01/05 03:46:38;;;;;;;22.90;3.47;;;;;;;3.88;100.00;100120.22;5115463;28;20058;-49
2022/01/05 03:49:04;;;;;;;15.20;3.83;;;;;;;3.74;100.00;100088.34;5115758;28;20067;-50
2022/01/05 03:51:29;;;;;;;16.77;3.67;;;;;;;3.77;100.00;100089.16;5115812;28;20055;-50
2022/01/05 03:53:55;;;;;;;16.20;4.13;;;;;;;4.04;100.00;100123.41;5097669;28;20058;-54
2022/01/05 03:56:20;;;;;;;19.77;3.50;;;;;;;3.62;100.00;100045.16;5115784;28;20096;-51
2022/01/05 03:58:46;;;;;;;13.13;3.20;;;;;;;4.05;100.00;100118.19;5115728;28;20040;-52
2022/01/05 04:01:11;;;;;;;13.35;2.78;;;;;;;4.09;100.00;100132.84;5097229;28;20048;-49
2022/01/05 04:03:36;;;;;;;13.98;3.15;;;;;;;3.86;100.00;100094.19;5115366;28;20057;-54
2022/01/05 04:06:02;;;;;;;19.00;2.85;;;;;;;4.06;100.00;100130.31;5097304;28;20055;-49
2022/01/05 04:08:28;;;;;;;15.55;3.10;;;;;;;3.86;100.00;100091.59;5115360;28;20531;-54
2022/01/05 04:10:53;;;;;;;10.82;2.95;;;;;;;3.76;100.00;100081.38;5097206;28;20035;-52
2022/01/05 04:13:19;;;;;;;13.10;3.15;;;;;;;4.16;100.00;100141.44;5080194;28;20431;-49
2022/01/05 04:15:45;;;;;;;13.43;3.13;;;;;;;3.98;100.00;100112.22;5115098;28;20062;-48
2022/01/05 04:18:10;;;;;;;15.05;2.70;;;;;;;4.19;100.00;100141.38;5097048;28;20063;-52
2022/01/05 04:20:36;;;;;;;16.80;3.60;;;;;;;4.20;100.00;100159.59;5115293;28;20091;-53
2022/01/05 04:23:01;;;;;;;15.55;3.08;;;;;;;4.21;100.00;100161.28;5114971;28;20036;-50
2022/01/05 04:25:27;;;;;;;11.13;2.67;;;;;;;4.20;100.00;100145.72;5115118;28;20030;-51
2022/01/05 04:27:52;;;;;;;11.45;2.70;;;;;;;4.20;100.00;100137.91;5114831;28;20114;-52
2022/01/05 04:30:17;;;;;;;10.43;2.90;;;;;;;4.18;100.00;100143.13;5114644;28;20055;-54
2022/01/05 04:32:43;;;;;;;11.18;3.45;;;;;;;3.65;100.00;100055.50;5096646;28;20035;-51
2022/01/05 04:35:11;;;;;;;11.30;2.88;;;;;;;3.88;100.00;100108.03;5096649;28;20115;-50
2022/01/05 04:37:37;;;;;;;13.43;3.17;;;;;;;3.94;100.00;100122.72;5114816;28;20520;-52
2022/01/05 04:40:03;;;;;;;13.65;3.63;;;;;;;3.76;100.00;100090.06;5114833;28;20040;-53
2022/01/05 04:42:28;;;;;;;21.02;3.38;;;;;;;3.66;100.00;100067.66;5114715;28;20036;-51
2022/01/05 04:44:54;;;;;;;16.27;2.83;;;;;;;3.55;100.00;100050.50;5114636;28;20100;-53
2022/01/05 04:47:20;;;;;;;9.90;2.63;;;;;;;3.80;100.00;100088.22;5096311;28;20081;-49
2022/01/05 04:49:46;;;;;;;21.83;3.05;;;;;;;3.72;100.00;100082.31;5114600;28;20034;-51
2022/01/05 04:52:11;;;;;;;9.50;2.90;;;;;;;3.84;100.00;100114.19;5114615;28;20031;-49
2022/01/05 04:54:36;;;;;;;13.70;2.92;;;;;;;3.73;100.00;100084.91;5114478;28;20059;-52
2022/01/05 04:57:02;;;;;;;13.77;3.10;;;;;;;4.15;100.00;100150.97;5114343;28;20059;-51
2022/01/05 04:59:27;;;;;;;16.90;2.83;;;;;;;3.72;100.00;100074.50;5095890;28;20031;-51
2022/01/05 05:01:52;;;;;;;13.25;3.78;;;;;;;3.66;100.00;100078.06;5114227;28;20031;-51
2022/01/05 05:04:18;;;;;;;14.45;3.60;;;;;;;3.61;100.00;100079.88;5096194;28;20035;-51
2022/01/05 05:06:43;;;;;;;26.73;4.63;;;;;;;3.93;100.00;100147.91;5096163;28;20171;-51
2022/01/05 05:09:09;;;;;;;16.23;2.67;;;;;;;3.56;100.00;100079.06;5114211;28;20050;-53
2022/01/05 05:11:34;;;;;;;15.05;3.10;;;;;;;3.97;100.00;100146.06;5114128;28;20036;-52
2022/01/05 05:13:59;;;;;;;14.52;3.22;;;;;;;4.07;100.00;100154.59;5113707;28;20043;-50
2022/01/05 05:16:25;;;;;;;13.32;3.42;;;;;;;3.96;100.00;100150.44;5113797;28;20119;-49
2022/01/05 05:18:50;;;;;;;16.42;3.50;;;;;;;3.58;100.00;100079.94;5095979;28;20042;-51
2022/01/05 05:21:15;;;;;;;11.52;2.97;;;;;;;4.05;100.00;100179.81;5114339;28;20063;-49
2022/01/05 05:23:41;;;;;;;11.68;3.05;;;;;;;4.04;100.00;100155.53;5114125;28;20039;-54
2022/01/05 05:26:06;;;;;;;14.75;3.28;;;;;;;4.02;100.00;100165.13;5113878;28;20042;-47
2022/01/05 05:28:31;;;;;;;17.70;2.95;;;;;;;4.00;100.00;100163.44;5095370;28;20016;-51
2022/01/05 05:30:57;;;;;;;17.75;3.05;;;;;;;3.63;100.00;100111.06;5084729;28;20388;-53
2022/01/05 05:33:22;;;;;;;10.57;2.78;;;;;;;3.73;100.00;100136.94;5112127;28;20390;-53
2022/01/05 05:35:48;;;;;;;14.93;2.97;;;;;;;3.36;100.00;100068.13;5112169;28;20036;-54
2022/01/05 05:38:14;;;;;;;12.80;3.63;;;;;;;3.37;100.00;100083.72;5112286;28;20035;-53
2022/01/05 05:40:40;;;;;;;21.98;4.05;;;;;;;3.63;100.00;100132.75;5113599;28;20038;-52
2022/01/05 05:43:05;;;;;;;17.95;2.97;;;;;;;3.76;100.00;100160.34;5112217;28;20031;-51
2022/01/05 05:45:31;;;;;;;13.75;2.92;;;;;;;3.39;100.00;100107.09;5113518;28;20059;-51
2022/01/05 05:47:56;;;;;;;19.38;2.92;;;;;;;3.74;100.00;100162.06;5112519;28;20040;-51
2022/01/05 05:50:21;;;;;;;10.73;2.60;;;;;;;3.82;100.00;100161.97;5113412;28;20035;-51
2022/01/05 05:52:47;;;;;;;21.63;3.10;;;;;;;3.77;100.00;100141.19;5112302;28;20042;-56
2022/01/05 05:55:12;;;;;;;13.80;2.90;;;;;;;3.50;100.00;100087.00;5113487;28;20035;-55
2022/01/05 05:57:37;;;;;;;19.48;3.45;;;;;;;3.98;100.00;100153.00;5113378;28;20042;-51
2022/01/05 06:00:07;;;;;;;18.92;2.85;;;;;;;4.07;100.00;100163.28;5113141;28;20039;-50
2022/01/05 06:02:33;;;;;;;20.63;3.60;;;;;;;3.98;100.00;100134.78;5113429;28;20547;-54
2022/01/05 06:04:58;;;;;;;14.57;3.47;;;;;;;3.77;100.00;100080.47;5112090;28;20059;-51
2022/01/05 06:07:23;;;;;;;17.13;4.25;;;;;;;3.75;100.00;100079.66;5113046;28;20402;-52
2022/01/05 06:09:48;;;;;;;11.40;3.15;;;;;;;3.97;100.00;100096.59;5112961;28;20043;-53
2022/01/05 06:12:14;;;;;;;15.15;3.30;;;;;;;3.91;100.00;100074.16;5113102;28;20039;-50
2022/01/05 06:14:39;;;;;;;13.32;3.47;;;;;;;4.51;100.00;100186.81;5112943;28;20039;-51
2022/01/05 06:17:05;;;;;;;25.83;4.53;;;;;;;4.07;100.00;100084.28;5100342;28;20121;-49
2022/01/05 06:19:30;;;;;;;17.25;3.47;;;;;;;4.24;100.00;100109.16;5074960;28;20059;-47
2022/01/05 06:21:56;;;;;;;19.75;3.53;;;;;;;4.15;100.00;100088.47;5103297;28;20137;-52
2022/01/05 06:24:21;;;;;;;19.38;3.97;;;;;;;4.16;100.00;100099.75;5112893;28;20600;-52
2022/01/05 06:26:46;;;;;;;17.45;3.55;;;;;;;4.25;100.00;100120.44;5112829;28;20035;-52
2022/01/05 06:29:15;;;;;;;16.67;4.00;;;;;;;4.21;100.00;100110.94;5094508;28;20054;-50
2022/01/05 06:31:41;;;;;;;20.85;4.20;;;;;;;4.19;100.00;100103.16;5104225;28;20119;-54
2022/01/05 06:34:06;;;;;;;18.17;3.92;;;;;;;4.19;100.00;100099.69;5092410;28;20116;-50
2022/01/05 06:36:32;;;;;;;22.48;4.60;;;;;;;4.67;100.00;100197.81;5074605;28;20508;-56
2022/01/05 06:38:57;;;;;;;19.90;4.03;;;;;;;4.67;100.00;100210.00;5092221;28;20063;-53
2022/01/05 06:41:22;;;;;;;22.95;4.43;;;;;;;4.54;100.00;100193.72;5096776;28;20036;-51
2022/01/05 06:43:48;;;;;;;26.60;4.28;;;;;;;4.16;100.00;100115.38;5112527;28;20028;-51
2022/01/05 06:46:13;;;;;;;15.70;4.60;;;;;;;4.17;100.00;100127.53;5115301;28;20035;-48
2022/01/05 06:48:38;;;;;;;20.30;3.72;;;;;;;4.65;100.00;100207.41;5097706;28;20044;-51
2022/01/05 06:51:04;;;;;;;16.38;3.92;;;;;;;4.67;100.00;100199.59;5078251;28;20034;-53
2022/01/05 06:53:29;;;;;;;20.98;4.28;;;;;;;4.65;100.00;100216.97;5100249;28;20519;-51
2022/01/05 06:55:55;;;;;;;20.63;4.32;;;;;;;4.67;100.00;100212.63;5116737;28;20063;-52
2022/01/05 06:58:20;;;;;;;16.95;3.67;;;;;;;4.55;100.00;100200.66;5116600;28;20108;-51
2022/01/05 07:00:45;;;;;;;18.67;4.50;;;;;;;4.66;100.00;100222.19;5116717;28;20071;-49
2022/01/05 07:03:11;;;;;;;22.98;3.97;;;;;;;4.30;100.00;100136.84;5116464;28;20035;-54
2022/01/05 07:05:36;;;;;;;22.92;4.53;;;;;;;4.25;100.00;100139.53;5095811;28;20031;-49
2022/01/05 07:08:02;;;;;;;21.63;4.78;;;;;;;4.67;100.00;100192.59;5095885;28;20402;-54
2022/01/05 07:10:27;;;;;;;18.83;3.88;;;;;;;4.78;100.00;100221.09;5095872;28;20043;-53
2022/01/05 07:12:52;;;;;;;27.42;4.65;;;;;;;4.83;100.00;100224.47;5095864;28;20040;-51
2022/01/05 07:15:18;;;;;;;28.45;4.45;;;;;;;4.72;100.00;100216.84;5096170;28;20028;-50
2022/01/05 07:17:43;;;;;;;26.33;4.68;;;;;;;3.46;100.00;100019.41;5081924;28;20043;-52
2022/01/05 07:20:09;;;;;;;18.98;4.28;;;;;;;4.70;100.00;100242.06;5116344;28;20106;-55
2022/01/05 07:22:36;;;;;;;27.60;5.00;;;;;;;4.86;100.00;100240.06;5116269;28;20059;-50
2022/01/05 07:25:02;;;;;;;22.13;4.07;;;;;;;4.85;100.00;100231.38;5116328;28;20036;-56
2022/01/05 07:27:28;;;;;;;19.88;4.10;;;;;;;4.91;100.00;100236.47;5115517;28;20389;-53
2022/01/05 07:29:53;;;;;;;20.83;3.50;;;;;;;4.88;100.00;100233.91;5108504;28;20036;-47
2022/01/05 07:32:19;;;;;;;23.92;5.18;;;;;;;4.40;100.00;100156.63;5095352;28;20048;-52
2022/01/05 07:34:44;;;;;;;17.23;4.03;;;;;;;4.50;100.00;100158.16;5095579;28;20036;-53
2022/01/05 07:37:09;;;;;;;18.50;3.88;;;;;;;4.88;100.00;100231.31;5076872;28;20048;-50
2022/01/05 07:39:36;;;;;;;18.83;3.72;;;;;;;4.79;100.00;100220.19;5095504;28;20039;-52
2022/01/05 07:42:01;;;;;;;19.40;4.07;;;;;;;4.91;100.00;100228.63;5101293;28;20089;-54
2022/01/05 07:44:27;;;;;;;18.85;4.00;;;;;;;4.44;100.00;100140.91;5115846;28;20035;-49
2022/01/05 07:46:52;;;;;;;23.15;4.00;;;;;;;4.19;100.00;100103.16;5115579;28;20081;-51
2022/01/05 07:49:17;;;;;;;22.02;4.25;;;;;;;5.01;100.00;100253.66;5115516;28;20032;-52
2022/01/05 07:51:43;;;;;;;17.08;4.00;;;;;;;4.95;100.00;100268.56;5112681;28;20517;-49
2022/01/05 07:54:08;;;;;;;25.13;4.30;;;;;;;4.92;100.00;100252.97;5076416;28;20081;-50
2022/01/05 07:56:33;;;;;;;18.70;4.20;;;;;;;4.89;100.00;100264.31;5094405;28;20089;-50
2022/01/05 07:58:59;;;;;;;21.83;4.88;;;;;;;4.86;100.00;100267.00;5094707;28;20089;-55
2022/01/05 08:01:24;;;;;;;24.95;4.80;;;;;;;4.86;100.00;100276.56;5095241;28;20032;-54
2022/01/05 08:03:50;;;;;;;29.33;4.30;;;;;;;4.22;100.00;100169.97;5096068;28;20421;-50
2022/01/05 08:06:17;;;;;;;23.35;4.50;;;;;;;4.79;100.00;100293.19;5077152;28;20035;-53
2022/01/05 08:08:43;;;;;;;25.30;4.75;;;;;;;4.72;100.00;100270.72;5076987;28;20039;-49
2022/01/05 08:11:09;;;;;;;24.67;4.10;;;;;;;4.62;100.00;100275.25;5092482;28;20042;-52
2022/01/05 08:13:34;;;;;;;25.30;5.05;;;;;;;4.58;100.00;100272.72;5108586;28;20051;-52
2022/01/05 08:16:00;;;;;;;25.77;4.95;;;;;;;4.50;100.00;100271.09;5076716;28;20048;-56
2022/01/05 08:18:25;;;;;;;29.90;4.55;;;;;;;4.28;100.00;100237.59;5094924;28;20035;-53
2022/01/05 08:20:50;;;;;;;26.65;4.50;;;;;;;3.96;100.00;100194.72;5094775;28;20038;-51
2022/01/05 08:23:20;;;;;;;19.48;3.75;;;;;;;4.42;100.00;100300.78;5094697;28;20070;-52
2022/01/05 08:25:46;;;;;;;22.77;5.50;;;;;;;4.39;100.00;100286.06;5103991;28;20390;-51
2022/01/05 08:28:11;;;;;;;24.10;3.92;;;;;;;3.73;100.00;100173.38;5114803;28;20065;-51
2022/01/05 08:30:38;;;;;;;26.10;4.43;;;;;;;3.71;100.00;100185.53;5093083;28;20056;-53
2022/01/05 08:33:04;;;;;;;23.00;3.80;;;;;;;3.82;100.00;100214.03;5094596;28;20064;-48
2022/01/05 08:35:30;;;;;;;18.35;3.92;;;;;;;4.32;100.00;100286.19;5094542;28;20430;-52
2022/01/05 08:37:55;;;;;;;19.48;4.18;;;;;;;4.09;100.00;100233.56;5082668;28;20047;-54
2022/01/05 08:40:23;;;;;;;27.35;4.50;;;;;;;4.23;100.00;100260.28;5073995;28;20376;-54
2022/01/05 08:42:48;;;;;;;26.08;5.18;;;;;;;4.02;100.00;100231.94;5074139;28;20464;-49
2022/01/05 08:45:15;;;;;;;31.98;4.80;;;;;;;4.38;100.00;100284.31;5079673;28;20044;-51
2022/01/05 08:47:47;;;;;;;25.98;5.80;;;;;;;4.44;100.00;100304.19;5094422;28;20486;-53
2022/01/05 08:50:14;;;;;;;34.42;5.10;;;;;;;4.05;100.00;100218.88;5090062;28;20048;-51
2022/01/05 08:52:39;;;;;;;32.92;4.78;;;;;;;4.09;100.00;100233.56;5092432;28;20123;-49
2022/01/05 08:55:06;;;;;;;31.27;5.55;;;;;;;4.45;100.00;100287.69;5072015;28;20190;-49
2022/01/05 08:57:31;;;;;;;30.60;5.47;;;;;;;4.47;100.00;100305.03;5071929;28;20028;-49
2022/01/05 08:59:57;;;;;;;31.88;5.53;;;;;;;4.07;100.00;100227.53;5071679;28;20427;-57
2022/01/05 09:02:22;;;;;;;31.80;5.35;;;;;;;4.31;100.00;100263.63;5073199;28;20086;-52
2022/01/05 09:04:51;;;;;;;26.92;5.03;;;;;;;4.67;100.00;100325.53;5073447;28;20033;-49
2022/01/05 09:07:17;;;;;;;33.25;4.90;;;;;;;4.65;100.00;100319.50;5073626;28;20067;-53
2022/01/05 09:09:42;;;;;;;27.55;4.95;;;;;;;4.68;100.00;100332.50;5053595;28;20059;-50
2022/01/05 09:12:08;;;;;;;30.33;4.30;;;;;;;4.41;100.00;100278.19;5072408;28;20083;-54
2022/01/05 09:14:34;;;;;;;34.95;4.90;;;;;;;4.65;100.00;100323.84;5071438;28;20037;-52
2022/01/05 09:16:59;;;;;;;22.55;4.82;;;;;;;4.67;100.00;100342.97;5072943;28;20380;-55
2022/01/05 09:19:24;;;;;;;26.77;4.55;;;;;;;4.21;100.00;100255.06;5072335;28;20533;-53
2022/01/05 09:21:50;;;;;;;21.20;4.82;;;;;;;4.72;100.00;100370.66;5072188;28;20117;-46
2022/01/05 09:24:16;;;;;;;26.10;5.20;;;;;;;4.28;100.00;100282.75;5071820;28;20040;-51
2022/01/05 09:26:41;;;;;;;24.42;4.53;;;;;;;4.40;100.00;100285.19;5073415;28;20028;-49
2022/01/05 09:29:07;;;;;;;23.58;4.57;;;;;;;4.82;100.00;100361.78;5072996;28;20110;-53
2022/01/05 09:31:33;;;;;;;37.55;5.75;;;;;;;4.47;100.00;100281.56;5085728;28;20092;-53
2022/01/05 09:33:58;;;;;;;28.92;4.65;;;;;;;4.62;100.00;100303.91;5075225;28;20119;-51
2022/01/05 09:36:30;;;;;;;36.92;5.50;;;;;;;5.05;100.00;100377.03;5093850;28;20450;-50
2022/01/05 09:42:05;;;;;;;29.58;4.45;;;;;;;4.90;100.00;100294.72;5020580;28;20101;-50
2022/01/05 09:44:32;;;;;;;;;;;;;;;5.33;100.00;100382.66;5075475;28;20462;-57
2022/01/05 09:47:26;;;;;;;22.55;4.25;;;;;;;5.38;100.00;100379.06;5074756;28;19919;-53
2022/01/05 09:49:57;;;;;;;27.38;4.32;;;;;;;5.41;100.00;100392.06;5092983;28;20479;-52
2022/01/05 09:52:23;;;;;;;21.00;4.25;;;;;;;5.43;100.00;100403.31;5093445;28;20414;-50
2022/01/05 09:54:49;;;;;;;19.55;4.60;;;;;;;5.06;100.00;100334.44;5092932;28;20043;-49
2022/01/05 09:57:16;;;;;;;28.95;4.20;;;;;;;5.45;100.00;100419.84;5074718;28;20036;-49
2022/01/05 09:59:41;;;;;;;25.25;4.63;;;;;;;5.44;100.00;100409.41;5092762;28;20471;-50
2022/01/05 10:02:07;;;;;;;25.13;4.57;;;;;;;5.45;100.00;100427.66;5075021;28;20040;-54
2022/01/05 10:04:34;;;;;;;21.45;4.95;;;;;;;5.42;100.00;100434.69;5093057;28;20040;-51
2022/01/05 10:07:00;;;;;;;23.20;4.90;;;;;;;5.41;100.00;100425.13;5092922;28;20399;-49
2022/01/05 10:09:25;;;;;;;21.38;4.03;;;;;;;5.52;100.00;100439.69;5092659;28;20047;-48
2022/01/05 10:11:51;;;;;;;22.83;4.60;;;;;;;5.45;100.00;100425.06;5092773;28;20035;-53
2022/01/05 10:14:16;;;;;;;23.60;4.43;;;;;;;5.02;100.00;100336.22;5092587;28;20552;-50
2022/01/05 10:16:45;;;;;;;24.92;4.30;;;;;;;5.37;100.00;100418.25;5092760;28;20039;-50
2022/01/05 10:19:19;;;;;;;26.08;4.40;;;;;;;5.10;100.00;100375.25;5074568;28;20056;-50
2022/01/05 10:21:45;;;;;;;23.48;4.32;;;;;;;5.52;100.00;100467.56;5092238;28;20040;-55
2022/01/05 10:24:10;;;;;;;23.00;4.22;;;;;;;5.37;100.00;100450.41;5074381;28;20028;-52
2022/01/05 10:26:39;;;;;;;21.98;4.70;;;;;;;5.39;100.00;100463.44;5092525;28;20032;-53
2022/01/05 10:29:14;;;;;;;21.70;4.10;;;;;;;5.21;100.00;100441.13;5074732;28;20117;-54
2022/01/05 10:31:41;;;;;;;27.92;4.57;;;;;;;5.26;100.00;100467.13;5092148;28;20052;-53
2022/01/05 10:34:18;;;;;;;28.00;6.57;;;;;;;4.75;100.00;100386.25;5092226;28;20115;-53
2022/01/05 10:36:47;;;;;;;27.20;4.30;;;;;;;5.23;100.00;100475.00;5092384;28;20040;-48
2022/01/05 10:39:13;;;;;;;21.08;4.07;;;;;;;4.94;100.00;100429.41;5074220;28;20036;-53
2022/01/05 10:41:39;;;;;;;26.52;4.05;;;;;;;4.80;100.00;100407.03;5092062;28;20097;-50
2022/01/05 10:44:24;;;;;;;23.70;4.82;;;;;;;5.23;100.00;100475.88;5074078;28;20379;-51
2022/01/05 10:46:53;;;;;;;23.50;4.93;;;;;;;4.81;100.00;100396.59;5091573;28;20502;-50
2022/01/05 10:49:23;;;;;;;25.65;5.15;;;;;;;4.97;100.00;100431.09;5092100;28;20032;-53
2022/01/05 10:51:49;;;;;;;22.02;4.57;;;;;;;4.94;100.00;100418.09;5092115;28;20105;-54
2022/01/05 10:54:17;;;;;;;28.27;5.65;;;;;;;5.16;100.00;100450.81;5092352;28;20479;-51
2022/01/05 10:56:42;;;;;;;27.58;4.45;;;;;;;5.26;100.00;100474.97;5092018;28;20110;-57
2022/01/05 10:59:08;;;;;;;29.15;5.22;;;;;;;5.16;100.00;100470.81;5074111;28;20124;-49
2022/01/05 11:01:34;;;;;;;27.35;4.60;;;;;;;4.94;100.00;100421.56;5092068;28;20044;-52
2022/01/05 11:04:18;;;;;;;27.13;3.88;;;;;;;5.32;100.00;100488.78;5091858;28;20454;-52
2022/01/05 11:07:03;;;;;;;30.60;5.35;;;;;;;4.58;100.00;100343.09;5074175;28;20114;-54
2022/01/05 11:09:31;;;;;;;27.42;5.20;;;;;;;5.35;100.00;100473.06;5091848;28;20047;-48
2022/01/05 11:11:57;;;;;;;21.67;4.72;;;;;;;5.48;100.00;100492.88;5074086;28;20412;-57
2022/01/05 11:14:34;;;;;;;27.15;4.93;;;;;;;5.53;100.00;100501.47;5092099;28;20036;-55
2022/01/05 11:17:02;;;;;;;31.52;4.75;;;;;;;5.12;100.00;100412.59;5074517;28;20059;-51